Main page
METAR-TAF:

METAR-TAF

Airports :

Moss Airport. Rygge

Rygge, Norway

latitude: 59-23N, longitude: 010-47E, elevation: 5 m

Current weather observation

The report was made 22 minutes ago, at 21:50 UTC
Wind 10 kt from the South
Temperature 6°C
Humidity 70%
Pressure 989 hPa
Visibility 10 km or more

METAR: ENRY 172150Z AUTO 19010KT 9999NDV NCD 06/01 Q0989

Time: 23:12 (22:12 UTC)

Forecast

Forecast valid from 17 at 18 UTC to 18 at 18 UTC
Wind 10 kt from the South/Southwest
Visibility 10 km or more
Scattered clouds at a height of 3000 ft
Temporary
from 17 at 18 UTC to 17 at 21 UTC
Wind 15 kt from the South/Southwest with gusts up to 25 kt
Temporary
from 18 at 06 UTC to 18 at 15 UTC
Wind 15 kt from the South/Southwest with gusts up to 25 kt

TAF: ENRY 1718/1818 21010KT 9999 SCT030 TEMPO 1718/1721 21015G25KT TEMPO 1806/1815 21015G25KT

Weather observations and forecasts of more than 4000 airports (METAR and TAF reports).

The available stations are represented by yellow and red dots on the map.

Hover mouse over dot to see the name of the station.

Then click to see weather observations and forecasts.

To change the map : click on the green buttons with a black cross to zoom in, on the green button with a dash to zoom out, or on the green arrows for adjacent maps.


METAR-TAF: